createdAt,value
2023-04-09T00:00:35.353Z,100701.38
2023-04-09T00:02:36.929Z,100712.03
2023-04-09T00:04:38.374Z,100707.75
2023-04-09T00:06:39.878Z,100707.09
2023-04-09T00:08:41.478Z,100709.03
2023-04-09T00:10:42.854Z,100704.63
2023-04-09T00:12:44.279Z,100704.94
2023-04-09T00:14:45.691Z,100701.50
2023-04-09T00:16:47.072Z,100703.47
2023-04-09T00:18:48.557Z,100705.59
2023-04-09T00:20:50.390Z,100698.72
2023-04-09T00:22:52.280Z,100705.72
2023-04-09T00:24:53.788Z,100704.09
2023-04-09T00:26:55.591Z,100700.81
2023-04-09T00:28:57.178Z,100702.59
2023-04-09T00:30:58.562Z,100700.13
2023-04-09T00:32:59.994Z,100697.00
2023-04-09T00:35:01.850Z,100695.22
2023-04-09T00:37:03.290Z,100697.00
2023-04-09T00:39:04.736Z,100689.47
2023-04-09T00:41:06.214Z,100700.13
2023-04-09T00:43:07.602Z,100696.00
2023-04-09T00:45:09.328Z,100693.56
2023-04-09T00:47:10.732Z,100693.69
2023-04-09T00:49:12.260Z,100689.59
2023-04-09T00:51:13.624Z,100694.00
2023-04-09T00:53:16.164Z,100704.78
2023-04-09T00:55:18.558Z,100694.47
2023-04-09T00:57:20.277Z,100691.34
2023-04-09T00:59:21.769Z,100693.44
2023-04-09T01:01:24.129Z,100689.19
2023-04-09T01:03:25.853Z,100700.66
2023-04-09T01:05:34.283Z,100691.47
2023-04-09T01:08:01.593Z,100698.81
2023-04-09T01:10:16.279Z,100690.44
2023-04-09T01:12:31.424Z,100697.78
2023-04-09T01:14:45.764Z,100693.00
2023-04-09T01:16:54.422Z,100695.47
2023-04-09T01:19:04.263Z,100692.34
2023-04-09T01:21:33.579Z,100692.63
2023-04-09T01:23:46.759Z,100688.72
2023-04-09T01:25:57.114Z,100686.69
2023-04-09T01:28:33.070Z,100686.69
2023-04-09T01:30:35.262Z,100688.94
2023-04-09T01:32:38.836Z,100684.69
2023-04-09T01:34:42.522Z,100688.56
2023-04-09T01:36:50.208Z,100692.31
2023-04-09T01:38:52.695Z,100686.41
2023-04-09T01:40:55.873Z,100688.38
2023-04-09T01:42:58.932Z,100681.66
2023-04-09T01:45:01.534Z,100683.44
2023-04-09T01:47:03.723Z,100688.97
2023-04-09T01:49:05.828Z,100695.31
2023-04-09T01:51:07.258Z,100690.09
2023-04-09T01:53:09.073Z,100691.22
2023-04-09T01:55:10.473Z,100682.69
2023-04-09T01:57:11.865Z,100679.56
2023-04-09T01:59:14.372Z,100686.59
2023-04-09T02:01:55.463Z,100685.09
2023-04-09T02:04:01.135Z,100688.00
2023-04-09T02:06:09.192Z,100691.75
2023-04-09T02:08:13.459Z,100685.69
2023-04-09T02:10:17.261Z,100687.94
2023-04-09T02:12:19.160Z,100683.00
2023-04-09T02:14:26.544Z,100687.41
2023-04-09T02:16:29.055Z,100688.53
2023-04-09T02:18:30.972Z,100684.56
2023-04-09T02:20:32.372Z,100673.47
2023-04-09T02:22:33.802Z,100681.97
2023-04-09T02:24:35.251Z,100679.66
2023-04-09T02:26:36.648Z,100683.22
2023-04-09T02:28:38.169Z,100680.91
2023-04-09T02:30:39.568Z,100681.75
2023-04-09T02:32:41.010Z,100674.03
2023-04-09T02:34:42.471Z,100673.38
2023-04-09T02:36:43.844Z,100671.91
2023-04-09T02:38:45.491Z,100669.44
2023-04-09T02:40:46.896Z,100671.06
2023-04-09T02:42:48.304Z,100668.78
2023-04-09T02:44:49.692Z,100668.06
2023-04-09T02:46:54.428Z,100661.38
2023-04-09T02:48:55.827Z,100657.94
2023-04-09T02:50:58.458Z,100661.81
2023-04-09T02:53:00.079Z,100658.53
2023-04-09T02:55:01.734Z,100650.72
2023-04-09T02:57:03.261Z,100654.41
2023-04-09T02:59:04.614Z,100657.19
2023-04-09T03:01:08.510Z,100655.53
2023-04-09T03:03:10.251Z,100655.19
2023-04-09T03:05:11.910Z,100662.31
2023-04-09T03:07:13.344Z,100662.44
2023-04-09T03:09:14.757Z,100653.31
2023-04-09T03:11:16.166Z,100652.78
2023-04-09T03:13:17.599Z,100650.31
2023-04-09T03:15:19.055Z,100653.22
2023-04-09T03:17:20.570Z,100650.91
2023-04-09T03:19:21.953Z,100643.19
2023-04-09T03:21:23.347Z,100649.69
2023-04-09T03:23:24.714Z,100642.16
2023-04-09T03:25:26.108Z,100642.75
2023-04-09T03:27:27.608Z,100648.25
2023-04-09T03:29:28.993Z,100636.28
2023-04-09T03:31:30.980Z,100637.56
2023-04-09T03:33:32.406Z,100638.97
2023-04-09T03:35:33.812Z,100644.59
2023-04-09T03:37:35.826Z,100643.78
2023-04-09T03:39:37.229Z,100643.13
2023-04-09T03:41:38.625Z,100638.19
2023-04-09T03:43:40.030Z,100642.72
2023-04-09T03:45:41.415Z,100630.13
2023-04-09T03:47:42.825Z,100631.22
2023-04-09T03:49:44.221Z,100622.03
2023-04-09T03:51:45.733Z,100633.72
2023-04-09T03:53:47.144Z,100631.41
2023-04-09T03:55:48.497Z,100635.00
2023-04-09T03:57:49.867Z,100627.97
2023-04-09T03:59:51.292Z,100631.84
2023-04-09T04:01:52.779Z,100631.56
2023-04-09T04:03:54.398Z,100633.34
2023-04-09T04:06:03.678Z,100628.13
2023-04-09T04:08:05.204Z,100633.34
2023-04-09T04:10:07.188Z,100635.13
2023-04-09T04:12:09.245Z,100631.69
2023-04-09T04:14:10.640Z,100630.56
2023-04-09T04:16:12.050Z,100635.94
2023-04-09T04:18:13.472Z,100641.28
2023-04-09T04:20:14.969Z,100638.16
2023-04-09T04:22:16.470Z,100638.72
2023-04-09T04:24:17.874Z,100641.75
2023-04-09T04:26:19.447Z,100641.91
2023-04-09T04:28:20.846Z,100639.31
2023-04-09T04:30:22.527Z,100639.44
2023-04-09T04:32:23.969Z,100643.97
2023-04-09T04:34:25.548Z,100647.84
2023-04-09T04:36:26.979Z,100646.59
2023-04-09T04:38:28.363Z,100653.47
2023-04-09T04:40:29.791Z,100650.59
2023-04-09T04:42:31.221Z,100652.09
2023-04-09T04:44:32.607Z,100657.72
2023-04-09T04:46:34.022Z,100654.28
2023-04-09T04:48:35.430Z,100655.41
2023-04-09T04:50:36.790Z,100654.56
2023-04-09T04:52:40.277Z,100656.63
2023-04-09T04:54:41.753Z,100655.97
2023-04-09T04:56:43.275Z,100652.66
2023-04-09T04:58:44.868Z,100654.59
2023-04-09T05:00:46.905Z,100647.72
2023-04-09T05:02:48.431Z,100649.50
2023-04-09T05:04:50.113Z,100653.09
2023-04-09T05:06:51.563Z,100652.13
2023-04-09T05:08:53.115Z,100655.72
2023-04-09T05:10:56.144Z,100645.28
2023-04-09T05:12:57.605Z,100653.75
2023-04-09T05:14:59.158Z,100652.81
2023-04-09T05:17:00.684Z,100651.72
2023-04-09T05:19:02.193Z,100658.69
2023-04-09T05:21:03.729Z,100655.97
2023-04-09T05:23:05.163Z,100656.34
2023-04-09T05:25:07.329Z,100654.44
2023-04-09T05:27:08.762Z,100653.34
2023-04-09T05:29:10.270Z,100653.88
2023-04-09T05:31:13.401Z,100661.81
2023-04-09T05:33:14.987Z,100663.59
2023-04-09T05:35:16.402Z,100664.41
2023-04-09T05:37:17.830Z,100660.41
2023-04-09T05:39:19.219Z,100656.56
2023-04-09T05:41:20.598Z,100660.69
2023-04-09T05:43:22.228Z,100664.66
2023-04-09T05:45:23.689Z,100660.00
2023-04-09T05:47:25.163Z,100661.31
2023-04-09T05:49:26.536Z,100664.63
2023-04-09T05:51:27.943Z,100673.66
2023-04-09T05:53:29.426Z,100666.53
2023-04-09T05:55:34.115Z,100659.09
2023-04-09T05:57:35.478Z,100673.19
2023-04-09T05:59:36.881Z,100662.50
2023-04-09T06:01:38.294Z,100658.78
2023-04-09T06:03:40.060Z,100665.06
2023-04-09T06:05:41.653Z,100671.47
2023-04-09T06:07:43.044Z,100674.47
2023-04-09T06:09:45.002Z,100668.97
2023-04-09T06:11:46.416Z,100673.31
2023-04-09T06:13:47.870Z,100668.47
2023-04-09T06:15:49.322Z,100672.44
2023-04-09T06:17:50.898Z,100665.81
2023-04-09T06:19:52.328Z,100671.41
2023-04-09T06:21:53.712Z,100673.44
2023-04-09T06:23:55.203Z,100676.28
2023-04-09T06:25:56.582Z,100677.63
2023-04-09T06:27:58.012Z,100678.81
2023-04-09T06:29:59.390Z,100674.81
2023-04-09T06:32:00.798Z,100682.19
2023-04-09T06:34:02.229Z,100676.22
2023-04-09T06:36:03.883Z,100670.38
2023-04-09T06:38:05.396Z,100681.91
2023-04-09T06:40:07.953Z,100680.16
2023-04-09T06:42:09.361Z,100679.56
2023-04-09T06:44:10.739Z,100672.78
2023-04-09T06:46:13.492Z,100676.44
2023-04-09T06:48:14.873Z,100671.41
2023-04-09T06:50:16.552Z,100676.72
2023-04-09T06:52:17.940Z,100674.13
2023-04-09T06:54:20.132Z,100674.50
2023-04-09T06:56:21.536Z,100683.22
2023-04-09T06:58:23.012Z,100680.94
2023-04-09T07:00:24.420Z,100685.88
2023-04-09T07:02:26.377Z,100686.56
2023-04-09T07:04:28.119Z,100690.88
2023-04-09T07:06:29.676Z,100680.63
2023-04-09T07:08:31.158Z,100682.59
2023-04-09T07:10:32.649Z,100680.03
2023-04-09T07:12:35.482Z,100683.31
2023-04-09T07:14:36.976Z,100686.00
2023-04-09T07:16:38.505Z,100687.81
2023-04-09T07:18:40.171Z,100674.91
2023-04-09T07:20:41.588Z,100684.44
2023-04-09T07:22:43.007Z,100677.25
2023-04-09T07:24:44.366Z,100678.91
2023-04-09T07:26:45.760Z,100687.59
2023-04-09T07:28:47.314Z,100695.16
2023-04-09T07:30:48.677Z,100692.88
2023-04-09T07:32:50.506Z,100693.69
2023-04-09T07:34:52.903Z,100695.34
2023-04-09T07:36:54.300Z,100699.25
2023-04-09T07:38:56.147Z,100708.78
2023-04-09T07:40:58.389Z,100703.84
2023-04-09T07:42:59.806Z,100700.88
2023-04-09T07:45:01.253Z,100700.53
2023-04-09T07:47:03.918Z,100703.16
2023-04-09T07:49:05.840Z,100689.84
2023-04-09T07:51:07.249Z,100695.25
2023-04-09T07:53:08.621Z,100688.81
2023-04-09T07:55:10.096Z,100696.34
2023-04-09T07:57:11.569Z,100693.69
2023-04-09T07:59:15.253Z,100695.31
2023-04-09T08:01:16.981Z,100692.94
2023-04-09T08:05:20.868Z,100685.13
2023-04-09T08:07:22.360Z,100687.38
2023-04-09T08:09:23.821Z,100686.00
2023-04-09T08:11:25.933Z,100684.47
2023-04-09T08:13:27.421Z,100686.31
2023-04-09T08:15:28.931Z,100684.00
2023-04-09T08:17:30.812Z,100685.56
2023-04-09T08:19:32.333Z,100686.44
2023-04-09T08:21:33.982Z,100686.41
2023-04-09T08:23:35.375Z,100688.19
2023-04-09T08:25:37.806Z,100683.84
2023-04-09T08:27:39.682Z,100685.84
2023-04-09T08:29:42.562Z,100687.13
2023-04-09T08:31:44.277Z,100687.22
2023-04-09T08:33:46.149Z,100684.69
2023-04-09T08:35:47.537Z,100676.13
2023-04-09T08:37:49.176Z,100679.22
2023-04-09T08:39:50.902Z,100688.34
2023-04-09T08:41:52.397Z,100689.41
2023-04-09T08:43:58.819Z,100690.31
2023-04-09T08:46:03.123Z,100683.81
2023-04-09T08:48:05.667Z,100690.00
2023-04-09T08:50:07.501Z,100686.28
2023-04-09T08:52:08.946Z,100685.72
2023-04-09T08:54:10.421Z,100687.31
2023-04-09T08:56:13.764Z,100688.13
2023-04-09T08:58:15.114Z,100684.78
2023-04-09T09:00:16.527Z,100690.41
2023-04-09T09:02:17.956Z,100686.00
2023-04-09T09:04:19.718Z,100682.50
2023-04-09T09:06:22.449Z,100681.19
2023-04-09T09:08:25.500Z,100680.31
2023-04-09T09:10:44.325Z,100683.31
2023-04-09T09:12:45.731Z,100676.31
2023-04-09T09:14:47.150Z,100688.53
2023-04-09T09:16:57.839Z,100689.28
2023-04-09T09:19:00.313Z,100694.34
2023-04-09T09:21:19.424Z,100687.97
2023-04-09T09:23:34.784Z,100687.06
2023-04-09T09:25:42.593Z,100675.28
2023-04-09T09:27:44.061Z,100688.59
2023-04-09T09:29:45.498Z,100685.00
2023-04-09T09:31:52.582Z,100679.97
2023-04-09T09:33:54.173Z,100677.00
2023-04-09T09:35:57.605Z,100678.94
2023-04-09T09:38:05.260Z,100685.34
2023-04-09T09:40:07.824Z,100676.41
2023-04-09T09:42:09.275Z,100675.19
2023-04-09T09:44:12.813Z,100677.19
2023-04-09T09:46:15.581Z,100678.84
2023-04-09T09:48:17.075Z,100676.19
2023-04-09T09:50:18.960Z,100673.72
2023-04-09T09:52:30.178Z,100669.66
2023-04-09T09:54:41.019Z,100662.94
2023-04-09T09:56:43.940Z,100672.72
2023-04-09T09:58:54.730Z,100660.31
2023-04-09T10:00:57.831Z,100658.25
2023-04-09T10:03:15.986Z,100655.00
2023-04-09T10:05:17.563Z,100655.41
2023-04-09T10:07:20.945Z,100663.72
2023-04-09T10:09:27.750Z,100656.38
2023-04-09T10:11:29.266Z,100651.44
2023-04-09T10:13:43.596Z,100663.97
2023-04-09T10:15:45.891Z,100657.22
2023-04-09T10:17:48.027Z,100647.44
2023-04-09T10:19:58.445Z,100649.28
2023-04-09T10:22:07.951Z,100647.25
2023-04-09T10:24:10.381Z,100645.00
2023-04-09T10:26:11.784Z,100647.25
2023-04-09T10:28:19.432Z,100641.03
2023-04-09T10:30:39.072Z,100636.59
2023-04-09T10:32:40.556Z,100641.09
2023-04-09T10:34:43.783Z,100641.06
2023-04-09T10:36:49.565Z,100640.06
2023-04-09T10:38:51.479Z,100633.63
2023-04-09T10:40:53.319Z,100632.44
2023-04-09T10:42:56.062Z,100632.69
2023-04-09T10:45:07.725Z,100627.59
2023-04-09T10:47:10.713Z,100630.97
2023-04-09T10:49:15.330Z,100623.97
2023-04-09T10:51:19.798Z,100629.16
2023-04-09T10:53:25.669Z,100625.78
2023-04-09T10:55:41.478Z,100625.97
2023-04-09T10:57:43.016Z,100627.22
2023-04-09T10:59:46.697Z,100623.28
2023-04-09T11:01:54.664Z,100621.66
2023-04-09T11:04:13.702Z,100620.88
2023-04-09T11:06:19.976Z,100617.94
2023-04-09T11:08:22.142Z,100611.28
2023-04-09T11:10:23.679Z,100618.19
2023-04-09T11:12:25.065Z,100609.28
2023-04-09T11:14:27.316Z,100618.59
2023-04-09T11:16:31.843Z,100600.28
2023-04-09T11:18:34.957Z,100609.53
2023-04-09T11:20:36.761Z,100613.34
2023-04-09T11:22:38.398Z,100610.16
2023-04-09T11:24:43.764Z,100600.97
2023-04-09T11:26:45.878Z,100595.38
2023-04-09T11:28:47.366Z,100605.16
2023-04-09T11:30:51.256Z,100596.97
2023-04-09T11:32:52.734Z,100600.13
2023-04-09T11:34:54.147Z,100607.06
2023-04-09T11:36:56.874Z,100607.22
2023-04-09T11:38:59.108Z,100597.75
2023-04-09T11:41:01.742Z,100596.91
2023-04-09T11:43:03.185Z,100599.34
2023-04-09T11:45:05.163Z,100606.78
2023-04-09T11:47:08.745Z,100591.13
2023-04-09T11:49:10.383Z,100597.84
2023-04-09T11:51:11.902Z,100595.25
2023-04-09T11:53:20.624Z,100595.63
2023-04-09T11:55:29.510Z,100582.66
2023-04-09T11:57:47.243Z,100586.50
2023-04-09T11:59:48.651Z,100587.28
2023-04-09T12:01:51.363Z,100585.81
2023-04-09T12:03:54.497Z,100585.69
2023-04-09T12:05:56.322Z,100588.84
2023-04-09T12:08:03.129Z,100581.97
2023-04-09T12:10:06.473Z,100583.13
2023-04-09T12:12:08.880Z,100591.63
2023-04-09T12:14:16.085Z,100578.00
2023-04-09T12:16:21.266Z,100583.28
2023-04-09T12:18:23.464Z,100581.97
2023-04-09T12:20:32.754Z,100583.94
2023-04-09T12:22:34.192Z,100583.97
2023-04-09T12:24:35.771Z,100583.13
2023-04-09T12:26:37.180Z,100577.44
2023-04-09T12:28:38.572Z,100578.47
2023-04-09T12:30:40.425Z,100585.06
2023-04-09T12:32:44.651Z,100580.00
2023-04-09T12:34:47.379Z,100578.34
2023-04-09T12:36:48.780Z,100576.97
2023-04-09T12:38:50.550Z,100579.81
2023-04-09T12:40:52.139Z,100574.28
2023-04-09T12:42:54.086Z,100574.28
2023-04-09T12:44:55.494Z,100574.81
2023-04-09T12:46:56.850Z,100580.78
2023-04-09T12:48:58.396Z,100577.16
2023-04-09T12:50:59.773Z,100571.13
2023-04-09T12:53:01.285Z,100567.31
2023-04-09T12:55:04.202Z,100565.44
2023-04-09T12:57:06.368Z,100568.44
2023-04-09T12:59:07.769Z,100563.81
2023-04-09T13:01:09.253Z,100559.72
2023-04-09T13:03:11.717Z,100562.50
2023-04-09T13:05:13.420Z,100555.28
2023-04-09T13:07:17.290Z,100551.56
2023-04-09T13:09:18.740Z,100558.13
2023-04-09T13:11:20.358Z,100557.44
2023-04-09T13:13:21.945Z,100560.09
2023-04-09T13:15:23.471Z,100554.09
2023-04-09T13:17:25.049Z,100555.56
2023-04-09T13:19:26.423Z,100554.25
2023-04-09T13:21:27.873Z,100549.78
2023-04-09T13:23:29.380Z,100546.31
2023-04-09T13:25:30.812Z,100544.94
2023-04-09T13:27:32.255Z,100551.50
2023-04-09T13:29:33.664Z,100544.53
2023-04-09T13:31:37.988Z,100545.66
2023-04-09T13:33:39.386Z,100548.78
2023-04-09T13:35:40.827Z,100547.28
2023-04-09T13:37:42.282Z,100540.97
2023-04-09T13:39:44.716Z,100545.94
2023-04-09T13:41:46.149Z,100537.78
2023-04-09T13:43:47.522Z,100542.25
2023-04-09T13:45:49.760Z,100535.56
2023-04-09T13:47:51.284Z,100535.00
2023-04-09T13:49:53.123Z,100534.59
2023-04-09T13:51:55.668Z,100532.63
2023-04-09T13:53:57.611Z,100538.72
2023-04-09T13:55:59.021Z,100535.56
2023-04-09T13:58:00.387Z,100529.31
2023-04-09T14:00:04.445Z,100524.59
2023-04-09T14:02:05.988Z,100527.78
2023-04-09T14:04:08.119Z,100520.34
2023-04-09T14:06:09.970Z,100525.03
2023-04-09T14:08:12.041Z,100519.06
2023-04-09T14:10:13.456Z,100515.91
2023-04-09T14:12:14.826Z,100514.19
2023-04-09T14:14:16.648Z,100519.94
2023-04-09T14:16:19.608Z,100517.84
2023-04-09T14:18:21.338Z,100519.03
2023-04-09T14:20:24.504Z,100515.59
2023-04-09T14:22:28.577Z,100520.78
2023-04-09T14:24:30.094Z,100519.19
2023-04-09T14:26:31.761Z,100520.03
2023-04-09T14:28:33.162Z,100514.00
2023-04-09T14:30:34.579Z,100512.06
2023-04-09T14:32:36.176Z,100516.22
2023-04-09T14:34:37.607Z,100508.22
2023-04-09T14:36:38.987Z,100499.75
2023-04-09T14:38:40.380Z,100497.16
2023-04-09T14:40:42.194Z,100502.13
2023-04-09T14:42:43.602Z,100492.13
2023-04-09T14:44:45.305Z,100495.78
2023-04-09T14:46:46.785Z,100490.13
2023-04-09T14:48:48.229Z,100495.47
2023-04-09T14:50:51.572Z,100490.91
2023-04-09T14:52:53.181Z,100497.41
2023-04-09T14:54:54.554Z,100494.22
2023-04-09T14:56:58.180Z,100495.44
2023-04-09T14:58:59.939Z,100493.81
2023-04-09T15:01:01.396Z,100487.41
2023-04-09T15:03:03.959Z,100486.44
2023-04-09T15:05:05.970Z,100488.44
2023-04-09T15:07:07.397Z,100483.81
2023-04-09T15:09:09.022Z,100485.25
2023-04-09T15:11:15.592Z,100489.41
2023-04-09T15:13:17.022Z,100482.56
2023-04-09T15:15:18.402Z,100472.59
2023-04-09T15:17:19.910Z,100470.63
2023-04-09T15:19:21.362Z,100461.53
2023-04-09T15:21:23.134Z,100469.72
2023-04-09T15:23:24.559Z,100462.63
2023-04-09T15:25:26.155Z,100470.09
2023-04-09T15:27:27.596Z,100478.09
2023-04-09T15:29:28.999Z,100482.59
2023-04-09T15:31:30.790Z,100480.22
2023-04-09T15:33:32.475Z,100464.72
2023-04-09T15:35:34.953Z,100476.72
2023-04-09T15:37:36.389Z,100488.47
2023-04-09T15:39:38.076Z,100475.66
2023-04-09T15:41:39.481Z,100471.25
2023-04-09T15:43:40.842Z,100474.25
2023-04-09T15:45:42.273Z,100471.41
2023-04-09T15:47:44.738Z,100477.63
2023-04-09T15:49:46.243Z,100470.75
2023-04-09T15:51:48.198Z,100475.09
2023-04-09T15:53:49.669Z,100475.06
2023-04-09T15:55:51.198Z,100482.59
2023-04-09T15:57:53.033Z,100485.16
2023-04-09T15:59:54.452Z,100475.25
2023-04-09T16:01:56.108Z,100474.16
2023-04-09T16:03:57.602Z,100468.13
2023-04-09T16:06:01.529Z,100473.66
2023-04-09T16:08:03.456Z,100471.59
2023-04-09T16:10:05.296Z,100466.38
2023-04-09T16:12:06.954Z,100480.06
2023-04-09T16:14:09.210Z,100470.84
2023-04-09T16:16:10.606Z,100477.03
2023-04-09T16:18:12.075Z,100477.28
2023-04-09T16:20:13.548Z,100472.09
2023-04-09T16:22:14.959Z,100483.84
2023-04-09T16:24:16.399Z,100473.22
2023-04-09T16:26:17.810Z,100464.88
2023-04-09T16:28:21.879Z,100468.41
2023-04-09T16:30:23.366Z,100464.63
2023-04-09T16:32:25.361Z,100459.22
2023-04-09T16:34:26.830Z,100459.88
2023-04-09T16:36:29.466Z,100452.31
2023-04-09T16:38:31.236Z,100456.44
2023-04-09T16:40:33.015Z,100457.47
2023-04-09T16:42:34.608Z,100461.59
2023-04-09T16:44:36.189Z,100463.31
2023-04-09T16:46:37.616Z,100455.56
2023-04-09T16:48:41.669Z,100450.69
2023-04-09T16:50:43.141Z,100449.53
2023-04-09T16:52:44.749Z,100446.41
2023-04-09T16:54:46.204Z,100445.50
2023-04-09T16:56:48.732Z,100446.06
2023-04-09T16:58:50.240Z,100448.91
2023-04-09T17:00:52.166Z,100449.84
2023-04-09T17:02:55.547Z,100439.81
2023-04-09T17:04:57.590Z,100440.03
2023-04-09T17:06:59.330Z,100430.44
2023-04-09T17:09:01.433Z,100429.81
2023-04-09T17:11:03.132Z,100431.84
2023-04-09T17:13:04.616Z,100422.78
2023-04-09T17:15:06.553Z,100416.91
2023-04-09T17:17:08.705Z,100408.47
2023-04-09T17:19:10.663Z,100411.72
2023-04-09T17:21:12.544Z,100417.38
2023-04-09T17:23:14.637Z,100421.31
2023-04-09T17:25:16.355Z,100420.72
2023-04-09T17:27:19.587Z,100407.38
2023-04-09T17:29:21.299Z,100418.03
2023-04-09T17:31:24.329Z,100411.13
2023-04-09T17:33:26.324Z,100415.31
2023-04-09T17:35:27.752Z,100413.19
2023-04-09T17:37:29.194Z,100411.28
2023-04-09T17:39:31.140Z,100410.13
2023-04-09T17:41:32.610Z,100412.03
2023-04-09T17:43:34.000Z,100420.91
2023-04-09T17:45:35.612Z,100428.31
2023-04-09T17:47:37.209Z,100425.16
2023-04-09T17:49:39.250Z,100427.28
2023-04-09T17:51:40.677Z,100430.50
2023-04-09T17:53:42.364Z,100437.50
2023-04-09T17:55:50.897Z,100432.88
2023-04-09T17:57:52.434Z,100432.69
2023-04-09T17:59:53.862Z,100442.78
2023-04-09T18:01:56.632Z,100442.19
2023-04-09T18:03:59.266Z,100448.22
2023-04-09T18:06:00.951Z,100450.78
2023-04-09T18:08:02.484Z,100445.59
2023-04-09T18:10:04.549Z,100435.91
2023-04-09T18:12:06.226Z,100432.00
2023-04-09T18:14:08.026Z,100432.94
2023-04-09T18:16:10.682Z,100437.72
2023-04-09T18:18:12.191Z,100438.78
2023-04-09T18:20:15.504Z,100441.31
2023-04-09T18:22:17.121Z,100443.03
2023-04-09T18:24:18.573Z,100445.09
2023-04-09T18:26:20.046Z,100442.72
2023-04-09T18:28:21.736Z,100442.38
2023-04-09T18:30:23.223Z,100446.06
2023-04-09T18:32:25.449Z,100448.34
2023-04-09T18:34:26.988Z,100450.41
2023-04-09T18:36:28.984Z,100447.16
2023-04-09T18:38:30.552Z,100450.66
2023-04-09T18:40:32.047Z,100452.28
2023-04-09T18:42:33.565Z,100448.03
2023-04-09T18:44:36.254Z,100457.38
2023-04-09T18:46:37.784Z,100457.00
2023-04-09T18:48:39.518Z,100458.00
2023-04-09T18:50:41.389Z,100461.03
2023-04-09T18:52:42.825Z,100456.97
2023-04-09T18:54:44.303Z,100462.00
2023-04-09T18:56:46.642Z,100456.09
2023-04-09T18:58:48.859Z,100452.41
2023-04-09T19:00:52.855Z,100447.72
2023-04-09T19:02:54.729Z,100457.25
2023-04-09T19:04:56.409Z,100452.31
2023-04-09T19:06:58.078Z,100448.03
2023-04-09T19:08:59.569Z,100451.88
2023-04-09T19:11:01.006Z,100451.88
2023-04-09T19:13:03.035Z,100450.38
2023-04-09T19:15:06.078Z,100449.75
2023-04-09T19:17:07.734Z,100456.00
2023-04-09T19:19:09.454Z,100453.34
2023-04-09T19:21:10.945Z,100450.28
2023-04-09T19:23:12.359Z,100455.53
2023-04-09T19:25:14.699Z,100453.66
2023-04-09T19:27:18.034Z,100451.16
2023-04-09T19:29:19.944Z,100450.94
2023-04-09T19:31:22.269Z,100450.91
2023-04-09T19:33:25.345Z,100452.69
2023-04-09T19:35:26.775Z,100461.16
2023-04-09T19:37:30.191Z,100463.53
2023-04-09T19:39:31.679Z,100460.69
2023-04-09T19:41:33.162Z,100471.78
2023-04-09T19:43:39.295Z,100469.28
2023-04-09T19:45:42.625Z,100469.06
2023-04-09T19:47:44.106Z,100466.34
2023-04-09T19:49:45.877Z,100463.63
2023-04-09T19:51:47.651Z,100469.66
2023-04-09T19:53:49.374Z,100461.94
2023-04-09T19:55:51.551Z,100452.16
2023-04-09T19:57:53.115Z,100450.91
2023-04-09T19:59:55.077Z,100455.91
2023-04-09T20:01:57.099Z,100451.22
2023-04-09T20:03:58.755Z,100452.16
2023-04-09T20:06:00.417Z,100448.25
2023-04-09T20:08:01.842Z,100448.63
2023-04-09T20:10:03.774Z,100445.72
2023-04-09T20:12:06.966Z,100448.91
2023-04-09T20:14:08.576Z,100450.31
2023-04-09T20:16:10.315Z,100444.94
2023-04-09T20:18:12.308Z,100445.31
2023-04-09T20:20:14.365Z,100442.25
2023-04-09T20:22:16.266Z,100447.63
2023-04-09T20:24:17.951Z,100445.34
2023-04-09T20:26:19.367Z,100446.00
2023-04-09T20:28:21.028Z,100445.34
2023-04-09T20:30:22.694Z,100441.00
2023-04-09T20:32:24.446Z,100441.75
2023-04-09T20:34:29.362Z,100440.94
2023-04-09T20:36:30.981Z,100442.94
2023-04-09T20:38:32.696Z,100447.13
2023-04-09T20:40:36.999Z,100446.66
2023-04-09T20:42:41.796Z,100446.22
2023-04-09T20:44:43.390Z,100446.41
2023-04-09T20:46:44.966Z,100454.47
2023-04-09T20:48:46.535Z,100446.31
2023-04-09T20:50:48.013Z,100448.47
2023-04-09T20:52:49.721Z,100442.97
2023-04-09T20:54:51.611Z,100437.41
2023-04-09T20:56:53.346Z,100436.81
2023-04-09T20:58:55.087Z,100435.31
2023-04-09T21:01:08.322Z,100439.97
2023-04-09T21:03:11.746Z,100437.88
2023-04-09T21:05:22.464Z,100442.06
2023-04-09T21:07:25.912Z,100438.31
2023-04-09T21:09:27.417Z,100439.03
2023-04-09T21:11:29.349Z,100438.59
2023-04-09T21:13:35.787Z,100441.75
2023-04-09T21:15:48.745Z,100438.28
2023-04-09T21:17:50.276Z,100433.41
2023-04-09T21:19:53.170Z,100436.56
2023-04-09T21:21:54.721Z,100428.88
2023-04-09T21:23:56.114Z,100428.41
2023-04-09T21:25:57.581Z,100427.13
2023-04-09T21:27:59.296Z,100427.50
2023-04-09T21:30:00.719Z,100424.41
2023-04-09T21:32:02.506Z,100429.81
2023-04-09T21:34:04.529Z,100424.09
2023-04-09T21:36:07.780Z,100427.56
2023-04-09T21:38:09.468Z,100423.13
2023-04-09T21:40:11.053Z,100426.28
2023-04-09T21:42:12.565Z,100426.63
2023-04-09T21:44:14.329Z,100425.19
2023-04-09T21:46:16.106Z,100421.91
2023-04-09T21:48:17.650Z,100421.28
2023-04-09T21:50:19.559Z,100422.63
2023-04-09T21:52:21.004Z,100422.31
2023-04-09T21:54:22.501Z,100412.16
2023-04-09T21:56:23.906Z,100419.44
2023-04-09T21:58:25.316Z,100420.25
2023-04-09T22:00:27.572Z,100412.53
2023-04-09T22:02:29.112Z,100421.75
2023-04-09T22:04:30.923Z,100417.66
2023-04-09T22:06:32.500Z,100410.97
2023-04-09T22:08:38.491Z,100424.25
2023-04-09T22:10:47.433Z,100424.78
2023-04-09T22:12:49.905Z,100423.47
2023-04-09T22:14:52.207Z,100420.19
2023-04-09T22:16:54.924Z,100426.63
2023-04-09T22:18:56.888Z,100425.50
2023-04-09T22:20:58.727Z,100430.13
2023-04-09T22:23:00.162Z,100420.75
2023-04-09T22:25:01.754Z,100419.31
2023-04-09T22:27:03.216Z,100417.34
2023-04-09T22:29:06.838Z,100425.53
2023-04-09T22:31:08.568Z,100428.50
2023-04-09T22:33:10.619Z,100421.97
2023-04-09T22:35:17.833Z,100416.91
2023-04-09T22:37:19.208Z,100416.44
2023-04-09T22:39:21.580Z,100416.97
2023-04-09T22:41:23.047Z,100415.16
2023-04-09T22:43:24.439Z,100413.34
2023-04-09T22:45:27.770Z,100405.50
2023-04-09T22:47:29.435Z,100413.50
2023-04-09T22:49:31.100Z,100413.88
2023-04-09T22:51:34.400Z,100419.28
2023-04-09T22:53:35.877Z,100422.09
2023-04-09T22:55:38.175Z,100426.50
2023-04-09T22:57:42.667Z,100431.91
2023-04-09T22:59:44.231Z,100442.94
2023-04-09T23:01:45.748Z,100431.97
2023-04-09T23:03:50.719Z,100440.81
2023-04-09T23:05:52.223Z,100445.41
2023-04-09T23:07:53.676Z,100453.59
2023-04-09T23:09:55.239Z,100457.25
2023-04-09T23:11:57.066Z,100452.16
2023-04-09T23:13:58.524Z,100451.53
2023-04-09T23:15:59.920Z,100454.13
2023-04-09T23:18:01.557Z,100444.63
2023-04-09T23:20:03.337Z,100453.00
2023-04-09T23:22:05.432Z,100453.16